Hovedside
METAR-TAF:

METAR-TAF

Lufthavner :

Oljeplattform

F16-a, Nederland

breddegrad: 54-07-00N, lengdegrad: 4-00-44E, høyde over havet: 28 m

Gjeldene værobservasjon

Denne rapporten ble laget for 39 minutter siden, klokken 19:55 UTC
Vind 19 kt fra Vest
Temperatur 13°C
Luftfuktighet 82%
Trykk 1005 hPa
Sikt 10 km eller mer
Spredte skyer i en høyde av 3500 ft
Spredte skyer i en høyde av 4600 ft

METAR: EHFZ 261955Z AUTO 27019KT 9999 SCT035 SCT046 13/10 Q1005 W///H///

Tid: 22:34 (20:34 UTC)


TAF: fraværende

Værobservasjoner og værvarsel for over 4000 flyplasser (METAR- og TAF-rapporter).

Tilgjengelige stasjoner er representert av de røde og gule prikkene på kartet.

Hold musepekeren over prikken for å se navnet på stasjonen.

Klikk så for å se værobservasjoner og -varsler.

For å forandre kartet kan du klikke på den grønne knappen med svart kryss for å zoome inn, på den grønne knappen med strek for å zoome ut, eller på de grønne pilene for å se tilstøtende kart.


METAR-TAF: